Time;durP1;ratioP1;P1;durP2;ratioP2;P2;SDS_P1;SDS_P2;PMS_P1;PMS_P2;Temp;Humidity;BMP_temperature;BMP_pressure;BME280_temperature;BME280_humidity;BME280_pressure;Samples;Min_cycle;Max_cycle;Signal;HPM_P1;HPM_P2
2023/03/08 00:01:21;;;;;;;0.10;0.10;;;;;;;0.70;89.10;100190.94;4972764;28;96755;-30
2023/03/08 00:03:49;;;;;;;0.22;0.22;;;;;;;0.66;89.03;100186.63;4971959;28;99728;-32
2023/03/08 00:06:15;;;;;;;0.25;0.25;;;;;;;0.66;89.08;100194.63;4972003;28;97904;-29
2023/03/08 00:08:41;;;;;;;0.25;0.25;;;;;;;0.65;89.04;100185.75;4971053;28;96739;-29
2023/03/08 00:11:09;;;;;;;0.05;0.05;;;;;;;0.63;88.93;100190.28;4970649;28;97274;-31
2023/03/08 00:13:35;;;;;;;0.40;0.30;;;;;;;0.62;88.93;100189.41;4970573;28;101086;-29
2023/03/08 00:16:02;;;;;;;0.28;0.28;;;;;;;0.67;88.83;100191.94;4970531;28;101288;-30
2023/03/08 00:18:28;;;;;;;0.00;0.00;;;;;;;0.65;88.83;100177.78;4970424;28;96617;-29
2023/03/08 00:21:05;;;;;;;0.30;0.17;;;;;;;0.61;88.16;100189.44;4971793;28;96863;-30
2023/03/08 00:23:30;;;;;;;0.47;0.35;;;;;;;0.64;88.66;100192.00;4971740;28;99355;-30
2023/03/08 00:25:56;;;;;;;0.20;0.20;;;;;;;0.65;88.70;100193.75;4970495;28;100917;-30
2023/03/08 00:28:22;;;;;;;0.00;0.00;;;;;;;0.64;88.67;100186.66;4970440;28;96706;-30
2023/03/08 00:31:01;;;;;;;0.10;0.10;;;;;;;0.67;88.62;100191.94;4972727;28;96797;-29
2023/03/08 00:33:28;;;;;;;0.05;0.05;;;;;;;0.66;88.64;100179.50;4973357;28;101319;-30
2023/03/08 00:36:01;;;;;;;0.38;0.15;;;;;;;0.66;88.59;100179.50;4973564;28;101036;-30
2023/03/08 00:38:27;;;;;;;0.15;0.15;;;;;;;0.63;88.47;100179.59;4975091;28;96652;-30
2023/03/08 00:40:53;;;;;;;0.10;0.10;;;;;;;0.62;88.62;100175.19;4973731;28;96863;-30
2023/03/08 00:43:19;;;;;;;3.17;0.40;;;;;;;0.61;88.61;100166.31;4974811;28;99451;-30
2023/03/08 00:45:45;;;;;;;0.05;0.05;;;;;;;0.61;88.31;100168.97;4974848;28;97590;-30
2023/03/08 00:48:10;;;;;;;0.00;0.00;;;;;;;0.62;88.78;100175.19;4975103;28;96618;-29
2023/03/08 00:50:36;;;;;;;0.32;0.20;;;;;;;0.60;88.88;100180.59;4975393;28;96774;-30
2023/03/08 00:53:02;;;;;;;0.13;0.13;;;;;;;0.58;88.72;100170.91;4974906;28;98192;-30
2023/03/08 00:55:28;;;;;;;0.00;0.00;;;;;;;0.55;88.82;100166.53;4973421;28;101732;-30
2023/03/08 00:57:53;;;;;;;0.00;0.00;;;;;;;0.54;88.78;100150.59;4974422;28;96548;-30
2023/03/08 01:00:19;;;;;;;0.17;0.15;;;;;;;0.52;89.10;100152.41;4974752;28;96911;-30
2023/03/08 01:02:44;;;;;;;0.15;0.10;;;;;;;0.50;89.05;100154.25;4974792;28;96755;-30
2023/03/08 01:05:10;;;;;;;0.25;0.25;;;;;;;0.52;88.93;100155.09;4974746;28;97297;-30
2023/03/08 01:07:35;;;;;;;0.28;0.20;;;;;;;0.49;88.86;100149.88;4974651;28;96701;-30
2023/03/08 01:10:02;;;;;;;0.10;0.10;;;;;;;0.48;88.78;100150.75;4974317;28;96717;-30
2023/03/08 01:12:28;;;;;;;0.10;0.10;;;;;;;0.44;88.93;100141.16;4974648;28;97905;-30
2023/03/08 01:14:53;;;;;;;1.25;0.60;;;;;;;0.39;89.13;100130.63;4974684;28;97945;-30
2023/03/08 01:17:18;;;;;;;0.25;0.25;;;;;;;0.40;89.40;100135.88;4974403;28;96680;-30
2023/03/08 01:19:44;;;;;;;0.47;0.38;;;;;;;0.39;89.30;100134.16;4974472;28;96924;-30
2023/03/08 01:22:10;;;;;;;0.47;0.10;;;;;;;0.35;89.16;100132.50;4974247;28;97292;-30
2023/03/08 01:24:35;;;;;;;0.00;0.00;;;;;;;0.38;88.99;100129.78;4974448;28;97257;-31
2023/03/08 01:27:00;;;;;;;0.38;0.22;;;;;;;0.38;89.52;100120.88;4974613;28;96785;-30
2023/03/08 01:29:26;;;;;;;0.30;0.25;;;;;;;0.36;89.13;100122.75;4974317;28;96803;-30
2023/03/08 01:31:52;;;;;;;0.75;0.43;;;;;;;0.36;89.07;100115.63;4972746;28;99098;-30
2023/03/08 01:34:18;;;;;;;0.10;0.10;;;;;;;0.35;89.24;100111.19;4974186;28;97406;-30
2023/03/08 01:36:44;;;;;;;0.20;0.20;;;;;;;0.35;89.15;100105.00;4972947;28;96676;-30
2023/03/08 01:39:09;;;;;;;0.75;0.15;;;;;;;0.35;89.13;100108.53;4974657;28;96748;-30
2023/03/08 01:41:34;;;;;;;0.65;0.57;;;;;;;0.32;89.28;100095.31;4974132;28;97256;-31
2023/03/08 01:44:00;;;;;;;0.10;0.10;;;;;;;0.35;89.08;100105.88;4971554;28;99816;-29
2023/03/08 01:46:29;;;;;;;0.15;0.15;;;;;;;0.35;89.25;100095.22;4973425;28;96560;-30
2023/03/08 01:49:06;;;;;;;0.03;0.03;;;;;;;0.33;89.01;100088.19;4972758;28;96833;-30
2023/03/08 01:51:43;;;;;;;0.43;0.43;;;;;;;0.35;88.91;100097.88;4972514;28;102825;-30
2023/03/08 01:54:14;;;;;;;0.10;0.10;;;;;;;0.33;89.11;100094.38;4972591;28;101358;-30
2023/03/08 01:56:41;;;;;;;0.10;0.10;;;;;;;0.33;88.90;100091.72;4972594;28;96584;-30
2023/03/08 01:59:07;;;;;;;0.28;0.28;;;;;;;0.34;89.21;100090.81;4972429;28;96749;-31
2023/03/08 02:01:33;;;;;;;0.20;0.17;;;;;;;0.33;89.12;100085.53;4972660;28;100669;-30
2023/03/08 02:03:59;;;;;;;0.17;0.15;;;;;;;0.30;89.05;100069.66;4972672;28;101001;-31
2023/03/08 02:06:25;;;;;;;0.30;0.30;;;;;;;0.34;89.12;100079.31;4973763;28;96490;-30
2023/03/08 02:08:50;;;;;;;0.10;0.10;;;;;;;0.32;89.39;100075.81;4971746;28;96878;-30
2023/03/08 02:11:18;;;;;;;0.00;0.00;;;;;;;0.34;89.38;100066.00;4973030;28;97857;-30
2023/03/08 02:13:43;;;;;;;1.25;0.98;;;;;;;0.31;89.56;100056.31;4973786;28;97267;-29
2023/03/08 02:16:12;;;;;;;0.20;0.20;;;;;;;0.34;89.70;100058.00;4973733;28;96502;-30
2023/03/08 02:18:49;;;;;;;0.28;0.28;;;;;;;0.33;89.52;100048.25;4972076;28;96790;-29
2023/03/08 02:21:14;;;;;;;0.47;0.47;;;;;;;0.33;89.77;100049.09;4971899;28;100992;-30
2023/03/08 02:23:39;;;;;;;0.63;0.63;;;;;;;0.29;90.04;100042.16;4973038;28;99531;-30
2023/03/08 02:26:05;;;;;;;0.55;0.50;;;;;;;0.33;89.78;100045.59;4973373;28;96707;-30
2023/03/08 02:28:31;;;;;;;0.22;0.22;;;;;;;0.34;89.72;100042.00;4973979;28;96743;-30
2023/03/08 02:30:58;;;;;;;0.28;0.28;;;;;;;0.33;89.60;100030.47;4971885;28;100811;-31
2023/03/08 02:33:23;;;;;;;0.75;0.70;;;;;;;0.31;89.81;100032.34;4971736;28;100856;-30
2023/03/08 02:35:50;;;;;;;0.40;0.40;;;;;;;0.29;89.95;100033.31;4971447;28;96661;-31
2023/03/08 02:38:17;;;;;;;1.25;0.43;;;;;;;0.34;89.63;100034.88;4973221;28;96733;-30
2023/03/08 02:40:43;;;;;;;0.13;0.13;;;;;;;0.34;89.90;100040.22;4971632;28;100985;-30
2023/03/08 02:43:08;;;;;;;1.23;1.02;;;;;;;0.36;89.92;100037.50;4973145;28;97959;-31
2023/03/08 02:45:34;;;;;;;0.55;0.50;;;;;;;0.35;90.37;100046.41;4973327;28;96604;-31
2023/03/08 02:48:01;;;;;;;0.73;0.60;;;;;;;0.35;90.37;100043.75;4973168;28;96764;-30
2023/03/08 02:50:27;;;;;;;0.55;0.45;;;;;;;0.34;90.16;100037.56;4971617;28;101072;-31
2023/03/08 02:52:52;;;;;;;1.13;0.93;;;;;;;0.38;90.02;100043.63;4972922;28;99209;-31
2023/03/08 02:55:17;;;;;;;1.30;0.90;;;;;;;0.36;90.14;100037.50;4973061;28;96739;-30
2023/03/08 02:57:43;;;;;;;2.97;1.17;;;;;;;0.36;90.20;100034.84;4973032;28;96742;-30
2023/03/08 03:00:09;;;;;;;0.65;0.65;;;;;;;0.34;90.48;100031.34;4972186;28;99348;-29
2023/03/08 03:02:35;;;;;;;1.38;0.65;;;;;;;0.35;90.20;100020.63;4971299;28;101830;-30
2023/03/08 03:05:05;;;;;;;0.75;0.47;;;;;;;0.33;90.47;100006.50;4973032;28;96642;-30
2023/03/08 03:07:34;;;;;;;0.77;0.70;;;;;;;0.34;90.13;100010.91;4971439;28;97036;-30
2023/03/08 03:09:59;;;;;;;1.02;0.95;;;;;;;0.35;90.29;99998.47;4970588;28;101036;-31
2023/03/08 03:12:25;;;;;;;0.40;0.40;;;;;;;0.33;90.30;99998.50;4972720;28;97922;-30
2023/03/08 03:14:50;;;;;;;1.73;1.00;;;;;;;0.34;90.46;99997.59;4972937;28;96464;-30
2023/03/08 03:17:15;;;;;;;0.40;0.40;;;;;;;0.33;90.30;99987.84;4973172;28;96800;-32
2023/03/08 03:19:41;;;;;;;0.60;0.60;;;;;;;0.30;90.39;99974.66;4972384;28;97390;-31
2023/03/08 03:22:06;;;;;;;0.63;0.63;;;;;;;0.35;90.32;99987.81;4972532;28;98219;-30
2023/03/08 03:24:31;;;;;;;0.50;0.38;;;;;;;0.32;90.36;99983.47;4972118;28;96503;-30
2023/03/08 03:26:57;;;;;;;0.50;0.47;;;;;;;0.32;90.31;99972.81;4973142;28;96781;-30
2023/03/08 03:29:22;;;;;;;2.50;1.27;;;;;;;0.33;90.11;99965.69;4972459;28;98632;-30
2023/03/08 03:31:47;;;;;;;2.47;1.40;;;;;;;0.38;90.22;99958.41;4972585;28;97780;-30
2023/03/08 03:34:13;;;;;;;1.77;1.60;;;;;;;0.36;90.65;99945.16;4972616;28;96582;-30
2023/03/08 03:36:39;;;;;;;1.98;1.70;;;;;;;0.40;90.58;99949.44;4972731;28;96781;-30
2023/03/08 03:39:04;;;;;;;0.80;0.80;;;;;;;0.38;90.65;99942.41;4972240;28;98903;-31
2023/03/08 03:41:30;;;;;;;0.75;0.57;;;;;;;0.39;91.11;99937.03;4972803;28;97838;-31
2023/03/08 03:43:57;;;;;;;2.45;1.25;;;;;;;0.41;90.74;99937.88;4972300;28;96482;-30
2023/03/08 03:46:23;;;;;;;1.30;1.13;;;;;;;0.42;91.08;99944.06;4971039;28;96838;-30
2023/03/08 03:48:49;;;;;;;0.45;0.32;;;;;;;0.46;91.09;99947.50;4971900;28;98061;-34
2023/03/08 03:51:17;;;;;;;1.27;0.85;;;;;;;0.45;90.70;99943.09;4972245;28;97711;-29
2023/03/08 03:53:43;;;;;;;2.10;1.73;;;;;;;0.50;90.98;99946.44;4970899;28;96726;-30
2023/03/08 03:56:17;;;;;;;0.38;0.38;;;;;;;0.49;91.14;99942.06;4970887;28;96781;-30
2023/03/08 03:58:43;;;;;;;1.33;1.10;;;;;;;0.49;91.26;99931.41;4972159;28;97866;-29
2023/03/08 04:01:17;;;;;;;0.60;0.47;;;;;;;0.52;90.98;99936.63;4970716;28;100794;-30
2023/03/08 04:03:43;;;;;;;0.65;0.63;;;;;;;0.50;91.23;99928.69;4970705;28;96613;-30
2023/03/08 04:06:15;;;;;;;1.63;1.13;;;;;;;0.52;90.92;99928.63;4972483;28;96760;-30
2023/03/08 04:08:41;;;;;;;;;;;;;;;0.56;90.86;99928.47;4973925;28;100842;-30
2023/03/08 04:11:18;;;;;;;0.82;0.68;;;;;;;0.56;90.83;99922.28;4975832;28;97820;-30
2023/03/08 04:13:43;;;;;;;1.35;0.52;;;;;;;0.52;90.97;99908.16;4973791;28;96936;-30
2023/03/08 04:16:20;;;;;;;1.05;0.80;;;;;;;0.56;91.06;99912.47;4975503;28;96763;-30
2023/03/08 04:18:45;;;;;;;1.33;1.00;;;;;;;0.56;91.26;99909.81;4975647;28;97823;-31
2023/03/08 04:21:12;;;;;;;1.88;1.67;;;;;;;0.56;91.46;99906.28;4973797;28;101272;-30
2023/03/08 04:23:37;;;;;;;0.77;0.73;;;;;;;0.57;90.99;99908.91;4974100;28;96558;-30
2023/03/08 04:26:04;;;;;;;1.63;1.30;;;;;;;0.55;91.40;99897.44;4975292;28;96668;-29
2023/03/08 04:28:30;;;;;;;2.40;1.33;;;;;;;0.57;91.35;99892.03;4973737;28;101372;-30
2023/03/08 04:30:56;;;;;;;1.52;1.25;;;;;;;0.52;91.57;99878.00;4974045;28;100743;-31
2023/03/08 04:33:22;;;;;;;1.23;1.15;;;;;;;0.55;91.84;99881.44;4975665;28;96436;-29
2023/03/08 04:35:47;;;;;;;0.68;0.68;;;;;;;0.56;91.82;99863.66;4973942;28;96831;-30
2023/03/08 04:38:13;;;;;;;0.60;0.60;;;;;;;0.59;91.79;99868.84;4974292;28;99759;-29
2023/03/08 04:43:22;;;;;;;4.15;1.58;;;;;;;0.59;91.52;99866.19;4975416;28;96575;-31
2023/03/08 04:45:47;;;;;;;1.08;0.88;;;;;;;0.60;91.18;99873.28;4975308;28;96808;-29
2023/03/08 04:48:13;;;;;;;1.52;1.42;;;;;;;0.62;91.93;99866.06;4974719;28;99555;-29
2023/03/08 04:50:38;;;;;;;5.57;1.35;;;;;;;0.60;91.75;99862.63;4974767;28;99126;-29
2023/03/08 04:53:04;;;;;;;1.90;1.17;;;;;;;0.63;91.66;99851.84;4974743;28;96596;-30
2023/03/08 04:55:29;;;;;;;3.33;1.52;;;;;;;0.61;91.48;99829.72;4973798;28;96828;-30
2023/03/08 04:57:55;;;;;;;3.47;1.45;;;;;;;0.61;91.95;99833.25;4973243;28;100660;-30
2023/03/08 05:00:20;;;;;;;1.13;1.05;;;;;;;0.60;91.83;99835.97;4974950;28;97966;-30
2023/03/08 05:02:46;;;;;;;2.90;1.27;;;;;;;0.58;91.97;99827.16;4974222;28;96609;-30
2023/03/08 05:05:11;;;;;;;0.47;0.47;;;;;;;0.60;91.71;99818.19;4974907;28;96778;-30
2023/03/08 05:07:36;;;;;;;1.70;1.52;;;;;;;0.60;91.57;99818.19;4974605;28;99557;-30
2023/03/08 05:10:02;;;;;;;1.83;1.65;;;;;;;0.63;91.64;99815.41;4974164;28;97820;-29
2023/03/08 05:12:27;;;;;;;2.05;1.45;;;;;;;0.62;92.19;99810.13;4974456;28;96628;-30
2023/03/08 05:14:52;;;;;;;3.22;2.17;;;;;;;0.64;92.22;99810.94;4974591;28;97047;-30
2023/03/08 05:17:19;;;;;;;2.17;1.75;;;;;;;0.60;92.58;99793.34;4973305;28;97964;-30
2023/03/08 05:19:44;;;;;;;1.20;1.15;;;;;;;0.62;92.20;99795.03;4974349;28;99573;-30
2023/03/08 05:22:10;;;;;;;1.23;1.13;;;;;;;0.66;92.35;99786.91;4974526;28;96568;-30
2023/03/08 05:24:39;;;;;;;2.10;1.35;;;;;;;0.65;92.46;99778.06;4974437;28;96854;-30
2023/03/08 05:27:05;;;;;;;1.58;1.48;;;;;;;0.63;93.24;99774.56;4972518;28;98967;-30
2023/03/08 05:29:30;;;;;;;2.88;1.40;;;;;;;0.59;92.88;99764.94;4974338;28;97779;-30
2023/03/08 05:31:57;;;;;;;1.38;1.27;;;;;;;0.63;92.82;99761.25;4974172;28;96538;-30
2023/03/08 05:34:23;;;;;;;1.77;1.17;;;;;;;0.63;92.72;99755.91;4974328;28;96830;-29
2023/03/08 05:36:48;;;;;;;3.72;1.95;;;;;;;0.68;92.95;99750.41;4974123;28;97938;-30
2023/03/08 05:39:13;;;;;;;1.48;1.33;;;;;;;0.67;92.38;99752.22;4974120;28;97561;-32
2023/03/08 05:41:39;;;;;;;2.38;1.00;;;;;;;0.66;92.81;99750.47;4974216;28;96527;-31
2023/03/08 05:44:04;;;;;;;1.85;1.55;;;;;;;0.65;92.68;99748.75;4974379;28;96778;-30
2023/03/08 05:46:29;;;;;;;4.75;2.95;;;;;;;0.61;92.45;99747.13;4973955;28;97982;-30
2023/03/08 05:48:55;;;;;;;2.70;2.05;;;;;;;0.61;93.10;99747.13;4973818;28;99206;-30
2023/03/08 05:51:20;;;;;;;3.03;1.35;;;;;;;0.57;93.60;99748.16;4973543;28;96596;-30
2023/03/08 05:53:46;;;;;;;2.13;1.73;;;;;;;0.56;93.15;99738.44;4974196;28;96818;-30
2023/03/08 05:56:18;;;;;;;2.80;1.95;;;;;;;0.59;93.71;99740.97;4973878;28;97886;-30
2023/03/08 05:58:44;;;;;;;2.00;1.75;;;;;;;0.57;93.42;99730.41;4972274;28;101055;-30
2023/03/08 06:01:15;;;;;;;1.88;1.65;;;;;;;0.58;93.18;99741.91;4972391;28;96625;-30
2023/03/08 06:03:45;;;;;;;2.97;1.98;;;;;;;0.53;93.11;99727.91;4973843;28;96917;-30
2023/03/08 06:06:11;;;;;;;3.40;1.20;;;;;;;0.55;93.01;99734.00;4972272;28;101022;-30
2023/03/08 06:08:36;;;;;;;2.08;1.90;;;;;;;0.48;92.84;99716.53;4973819;28;97396;-30
2023/03/08 06:11:02;;;;;;;1.63;1.40;;;;;;;0.45;92.82;99720.19;4973521;28;96496;-30
2023/03/08 06:13:27;;;;;;;4.65;2.80;;;;;;;0.48;93.55;99741.41;4973787;28;96730;-30
2023/03/08 06:15:57;;;;;;;1.85;1.58;;;;;;;0.40;93.46;99739.00;4973066;28;97420;-30
2023/03/08 06:18:23;;;;;;;2.63;1.80;;;;;;;0.36;93.94;99733.88;4971892;28;100486;-29
2023/03/08 06:21:01;;;;;;;3.63;1.67;;;;;;;0.39;93.73;99734.63;4971927;28;96577;-30
2023/03/08 06:23:27;;;;;;;3.10;1.58;;;;;;;0.40;93.78;99732.81;4972152;28;96874;-30
2023/03/08 06:25:53;;;;;;;3.63;3.25;;;;;;;0.37;93.43;99740.94;4971787;28;101628;-30
2023/03/08 06:28:19;;;;;;;1.48;1.25;;;;;;;0.35;94.09;99734.78;4972901;28;97846;-30
2023/03/08 06:30:48;;;;;;;1.55;0.43;;;;;;;0.34;94.15;99731.25;4971987;28;96543;-30
2023/03/08 06:33:15;;;;;;;1.45;1.27;;;;;;;0.34;94.45;99730.41;4972235;28;96788;-30
2023/03/08 06:35:41;;;;;;;2.33;2.13;;;;;;;0.36;94.59;99729.41;4971618;28;100968;-30
2023/03/08 06:38:06;;;;;;;3.13;2.42;;;;;;;0.39;94.13;99733.75;4973086;28;98863;-29
2023/03/08 06:40:31;;;;;;;4.03;1.98;;;;;;;0.37;94.79;99728.47;4972871;28;96463;-31
2023/03/08 06:42:57;;;;;;;1.70;1.52;;;;;;;0.41;94.56;99726.56;4973083;28;96927;-30
2023/03/08 06:45:22;;;;;;;2.85;2.20;;;;;;;0.45;93.76;99733.50;4973222;28;97951;-30
2023/03/08 06:47:48;;;;;;;3.13;1.48;;;;;;;0.41;94.11;99730.09;4972883;28;99254;-30
2023/03/08 06:50:13;;;;;;;4.63;2.70;;;;;;;0.39;94.26;99717.78;4972826;28;96632;-30
2023/03/08 06:52:38;;;;;;;2.33;2.03;;;;;;;0.39;94.04;99725.75;4973312;28;96699;-30
2023/03/08 06:55:04;;;;;;;3.95;2.65;;;;;;;0.39;93.64;99729.28;4973007;28;97372;-30
2023/03/08 06:57:29;;;;;;;4.22;1.88;;;;;;;0.37;94.32;99731.13;4973023;28;99708;-30
2023/03/08 06:59:55;;;;;;;2.30;2.08;;;;;;;0.31;94.27;99718.06;4973001;28;96471;-31
2023/03/08 07:02:20;;;;;;;3.72;1.92;;;;;;;0.33;94.76;99725.97;4973079;28;96734;-29
2023/03/08 07:04:46;;;;;;;2.95;2.67;;;;;;;0.29;95.36;99725.25;4972201;28;98365;-31
2023/03/08 07:07:11;;;;;;;2.75;1.73;;;;;;;0.32;94.91;99722.47;4972887;28;97279;-31
2023/03/08 07:09:36;;;;;;;3.70;1.98;;;;;;;0.33;95.84;99726.84;4972093;28;96766;-31
2023/03/08 07:12:02;;;;;;;1.42;1.33;;;;;;;0.31;94.76;99718.06;4972779;28;96809;-30
2023/03/08 07:14:27;;;;;;;1.70;1.58;;;;;;;0.34;95.42;99711.75;4972756;28;98433;-30
2023/03/08 07:16:53;;;;;;;2.22;2.00;;;;;;;0.34;94.72;99709.09;4972874;28;97426;-31
2023/03/08 07:19:18;;;;;;;2.88;2.22;;;;;;;0.32;94.22;99701.16;4972000;28;96652;-31
2023/03/08 07:21:43;;;;;;;3.70;2.67;;;;;;;0.36;94.88;99705.44;4972591;28;96813;-30
2023/03/08 07:24:10;;;;;;;3.97;2.85;;;;;;;0.33;95.31;99710.88;4971523;28;98093;-31
2023/03/08 07:26:35;;;;;;;3.80;3.22;;;;;;;0.35;94.85;99703.69;4970858;28;101434;-30
2023/03/08 07:29:00;;;;;;;2.33;2.05;;;;;;;0.36;95.24;99704.59;4972252;28;96547;-29
2023/03/08 07:31:27;;;;;;;7.25;4.60;;;;;;;0.34;94.99;99701.97;4972682;28;96722;-30
2023/03/08 07:33:53;;;;;;;3.95;2.97;;;;;;;0.35;95.53;99694.84;4970971;28;100981;-30
2023/03/08 07:36:19;;;;;;;3.45;3.10;;;;;;;0.37;95.49;99696.50;4972584;28;97210;-30
2023/03/08 07:38:45;;;;;;;4.88;2.83;;;;;;;0.34;95.86;99695.78;4972487;28;96552;-30
2023/03/08 07:41:11;;;;;;;2.35;2.15;;;;;;;0.37;95.29;99693.84;4970156;28;96713;-32
2023/03/08 07:43:36;;;;;;;3.70;3.33;;;;;;;0.38;95.37;99690.28;4969739;28;99458;-30
2023/03/08 07:46:03;;;;;;;1.42;1.25;;;;;;;0.41;94.85;99695.47;4970292;28;97631;-30
2023/03/08 07:48:29;;;;;;;3.20;1.67;;;;;;;0.40;95.05;99687.53;4969822;28;96852;-32
2023/03/08 07:50:54;;;;;;;3.22;2.92;;;;;;;0.47;94.32;99693.50;4969819;28;96793;-30
2023/03/08 07:53:20;;;;;;;5.03;2.15;;;;;;;0.39;95.12;99688.47;4969842;28;98021;-30
2023/03/08 07:55:45;;;;;;;2.17;1.95;;;;;;;0.45;94.71;99682.03;4970945;28;99255;-30
2023/03/08 07:58:10;;;;;;;3.10;2.28;;;;;;;0.47;95.14;99682.84;4972630;28;96452;-31
2023/03/08 08:00:36;;;;;;;3.15;1.77;;;;;;;0.51;95.59;99680.00;4972233;28;96797;-30
2023/03/08 08:03:01;;;;;;;2.80;1.50;;;;;;;0.51;95.17;99668.47;4972117;28;97826;-30
2023/03/08 08:05:27;;;;;;;5.63;3.03;;;;;;;0.51;95.23;99669.34;4971858;28;99243;-30
2023/03/08 08:07:52;;;;;;;5.22;4.13;;;;;;;0.53;95.40;99669.28;4972215;28;96593;-30
2023/03/08 08:10:18;;;;;;;2.40;2.20;;;;;;;0.50;95.31;99669.38;4971655;28;100603;-30
2023/03/08 08:12:43;;;;;;;3.10;2.22;;;;;;;0.51;95.93;99660.50;4971797;28;99177;-31
2023/03/08 08:15:09;;;;;;;3.03;1.77;;;;;;;0.54;95.47;99661.22;4972030;28;97749;-30
2023/03/08 08:17:34;;;;;;;1.33;1.02;;;;;;;0.54;95.34;99660.34;4971455;28;96551;-29
2023/03/08 08:19:59;;;;;;;2.80;2.40;;;;;;;0.57;95.20;99660.22;4971216;28;96818;-30
2023/03/08 08:22:25;;;;;;;1.20;1.10;;;;;;;0.58;95.69;99659.31;4971710;28;99758;-29
2023/03/08 08:24:50;;;;;;;2.17;1.98;;;;;;;0.61;94.71;99665.38;4971765;28;97974;-30
2023/03/08 08:27:15;;;;;;;1.75;1.35;;;;;;;0.64;95.34;99664.38;4972017;28;96544;-30
2023/03/08 08:29:44;;;;;;;1.77;1.40;;;;;;;0.67;95.04;99672.28;4971978;28;96853;-30
2023/03/08 08:32:10;;;;;;;1.52;1.30;;;;;;;0.68;94.43;99671.34;4971598;28;98008;-30
2023/03/08 08:34:35;;;;;;;1.65;1.52;;;;;;;0.65;95.52;99663.47;4971768;28;99558;-31
2023/03/08 08:37:02;;;;;;;1.60;1.08;;;;;;;0.63;95.73;99657.34;4971976;28;96611;-29
2023/03/08 08:39:28;;;;;;;2.38;1.15;;;;;;;0.65;95.88;99658.16;4970412;28;96884;-31
2023/03/08 08:41:53;;;;;;;2.22;2.03;;;;;;;0.61;95.91;99657.38;4971311;28;97427;-30
2023/03/08 08:44:18;;;;;;;0.95;0.90;;;;;;;0.60;95.83;99649.47;4971735;28;97213;-30
2023/03/08 08:46:44;;;;;;;2.63;1.70;;;;;;;0.60;95.86;99642.34;4971898;28;96589;-30
2023/03/08 08:49:09;;;;;;;0.52;0.52;;;;;;;0.57;96.14;99639.81;4971947;28;96764;-30
2023/03/08 08:51:35;;;;;;;1.13;1.02;;;;;;;0.62;95.54;99644.91;4972499;28;97471;-29
2023/03/08 08:54:00;;;;;;;1.00;0.93;;;;;;;0.62;95.61;99650.25;4974873;28;97772;-30
2023/03/08 08:56:27;;;;;;;1.30;0.77;;;;;;;0.58;96.19;99640.66;4974826;28;96550;-30
2023/03/08 08:58:53;;;;;;;1.15;0.95;;;;;;;0.58;95.66;99633.53;4973842;28;96897;-31
2023/03/08 09:01:22;;;;;;;0.90;0.43;;;;;;;0.59;96.07;99639.72;4973294;28;100848;-33
2023/03/08 09:03:48;;;;;;;1.80;1.30;;;;;;;0.57;95.67;99630.91;4974471;28;99177;-29
2023/03/08 09:06:16;;;;;;;3.15;1.88;;;;;;;0.59;96.46;99624.59;4972854;28;96719;-30
2023/03/08 09:08:41;;;;;;;0.60;0.52;;;;;;;0.58;96.93;99620.22;4973100;28;96766;-31
2023/03/08 09:11:09;;;;;;;1.00;0.77;;;;;;;0.60;96.15;99617.50;4974526;28;99482;-30
2023/03/08 09:13:40;;;;;;;1.38;0.85;;;;;;;0.64;96.65;99605.75;4973137;28;100929;-30
2023/03/08 09:16:06;;;;;;;0.40;0.32;;;;;;;0.68;96.59;99593.19;4974418;28;96682;-30
2023/03/08 09:18:31;;;;;;;2.10;1.17;;;;;;;0.65;96.70;99593.34;4974603;28;96707;-29
2023/03/08 09:20:56;;;;;;;2.58;1.83;;;;;;;0.72;96.51;99597.47;4972829;28;99471;-30
2023/03/08 09:23:22;;;;;;;2.45;1.15;;;;;;;0.72;96.32;99597.47;4974978;28;97822;-31
2023/03/08 09:25:55;;;;;;;2.22;1.55;;;;;;;0.77;96.87;99585.69;4974449;28;97114;-30
2023/03/08 09:28:20;;;;;;;2.70;1.58;;;;;;;0.84;96.23;99576.50;4974522;28;96690;-30
2023/03/08 09:30:45;;;;;;;1.60;1.15;;;;;;;0.85;95.73;99572.88;4972374;28;101113;-29
2023/03/08 09:33:11;;;;;;;0.75;0.55;;;;;;;0.90;95.74;99583.34;4974412;28;97838;-30
2023/03/08 09:35:36;;;;;;;0.65;0.65;;;;;;;0.96;96.48;99571.59;4974550;28;96694;-30
2023/03/08 09:38:01;;;;;;;1.70;0.77;;;;;;;0.95;96.80;99564.50;4974258;28;96804;-30
2023/03/08 09:40:29;;;;;;;1.17;0.65;;;;;;;1.04;96.30;99561.44;4974112;28;97853;-31
2023/03/08 09:43:02;;;;;;;1.63;1.13;;;;;;;1.12;95.71;99563.78;4972605;28;101451;-30
2023/03/08 09:45:28;;;;;;;1.80;1.15;;;;;;;1.22;95.52;99570.47;4972764;28;96666;-30
2023/03/08 09:48:18;;;;;;;1.23;0.55;;;;;;;1.36;95.13;99569.81;4974480;28;96733;-29
2023/03/08 09:50:52;;;;;;;0.50;0.47;;;;;;;1.51;95.16;99582.50;4972653;28;101298;-29
2023/03/08 09:53:43;;;;;;;1.52;1.23;;;;;;;1.58;95.17;99583.94;4972598;28;100878;-31
2023/03/08 09:56:30;;;;;;;1.45;0.65;;;;;;;1.59;94.93;99582.16;4973552;28;96447;-29
2023/03/08 09:59:25;;;;;;;0.60;0.47;;;;;;;1.65;94.41;99569.41;4972518;28;97498;-29
2023/03/08 10:02:09;;;;;;;0.57;0.55;;;;;;;1.75;94.70;99587.66;4974119;28;97951;-30
2023/03/08 10:04:57;;;;;;;0.80;0.73;;;;;;;1.82;93.90;99576.63;4973180;28;97927;-30
2023/03/08 10:08:13;;;;;;;0.00;0.00;;;;;;;1.75;93.40;99574.31;4974023;28;96451;-29
2023/03/08 10:10:56;;;;;;;0.15;0.15;;;;;;;1.68;94.09;99547.03;4980722;28;97011;-29
2023/03/08 10:13:50;;;;;;;1.83;0.90;;;;;;;1.81;93.75;99545.53;4973785;28;97867;-30
2023/03/08 10:16:28;;;;;;;1.33;0.65;;;;;;;1.95;92.78;99526.19;4977036;28;97826;-31
2023/03/08 10:19:05;;;;;;;0.45;0.38;;;;;;;2.05;92.17;99526.59;4972311;28;96650;-30
2023/03/08 10:21:35;;;;;;;0.82;0.40;;;;;;;2.12;91.58;99528.03;4972058;28;96799;-30
2023/03/08 10:24:13;;;;;;;1.38;1.15;;;;;;;2.39;91.78;99527.66;4972735;28;98382;-29
2023/03/08 10:26:41;;;;;;;0.95;0.80;;;;;;;2.73;90.30;99522.34;4971942;28;100743;-30
2023/03/08 10:29:10;;;;;;;0.60;0.55;;;;;;;2.76;89.25;99522.19;4971869;28;96805;-29
2023/03/08 10:31:35;;;;;;;0.40;0.40;;;;;;;2.78;89.58;99531.94;4972075;28;96798;-29
2023/03/08 10:34:16;;;;;;;0.93;0.80;;;;;;;2.62;88.66;99526.50;4973464;28;97854;-29
2023/03/08 10:37:03;;;;;;;0.30;0.22;;;;;;;2.36;88.22;99509.09;4971867;28;100882;-30
2023/03/08 10:39:28;;;;;;;0.47;0.40;;;;;;;2.31;88.24;99525.34;4971794;28;96821;-30
2023/03/08 10:41:58;;;;;;;1.13;0.88;;;;;;;2.36;89.26;99534.03;4972212;28;96782;-31
2023/03/08 10:44:50;;;;;;;0.63;0.45;;;;;;;2.39;89.06;99538.34;4971811;28;101723;-30
2023/03/08 10:47:17;;;;;;;;;;;;;;;2.27;88.45;99545.16;4972237;28;100655;-30
2023/03/08 10:49:44;;;;;;;0.52;0.38;;;;;;;2.23;88.72;99560.44;4972642;28;96563;-30
2023/03/08 10:52:25;;;;;;;0.20;0.20;;;;;;;2.16;88.87;99548.31;4973030;28;96759;-30
2023/03/08 10:55:10;;;;;;;0.17;0.17;;;;;;;2.09;88.50;99538.88;4971524;28;99507;-30
2023/03/08 10:57:36;;;;;;;0.52;0.22;;;;;;;2.02;88.79;99537.44;4972864;28;98987;-30
2023/03/08 11:00:33;;;;;;;0.38;0.32;;;;;;;2.04;89.22;99538.22;4971665;28;96507;-30
2023/03/08 11:03:09;;;;;;;0.77;0.50;;;;;;;2.06;89.36;99526.53;4970799;28;96799;-30
2023/03/08 11:05:35;;;;;;;1.35;0.85;;;;;;;2.15;89.43;99513.69;4971522;28;101091;-30
2023/03/08 11:08:00;;;;;;;0.35;0.28;;;;;;;2.25;88.20;99517.63;4973101;28;97331;-29
2023/03/08 11:10:27;;;;;;;0.17;0.17;;;;;;;2.34;88.17;99506.50;4972768;28;96467;-30
2023/03/08 11:13:14;;;;;;;0.55;0.35;;;;;;;2.42;87.64;99501.63;4971442;28;96887;-31
2023/03/08 11:15:44;;;;;;;1.20;0.77;;;;;;;2.44;87.53;99509.59;4955347;28;101426;-30
2023/03/08 11:18:31;;;;;;;0.25;0.20;;;;;;;2.44;86.67;99512.25;4971168;28;102483;-29
2023/03/08 11:21:04;;;;;;;0.45;0.45;;;;;;;2.46;87.09;99508.56;4972858;28;96585;-29
2023/03/08 11:23:39;;;;;;;1.20;0.88;;;;;;;2.47;86.95;99510.28;4971426;28;96746;-30
2023/03/08 11:26:30;;;;;;;1.55;1.00;;;;;;;2.59;87.50;99508.81;4972629;28;97716;-30
2023/03/08 11:29:11;;;;;;;1.05;0.95;;;;;;;2.58;86.84;99508.91;4972337;28;99228;-31
2023/03/08 11:32:01;;;;;;;0.28;0.28;;;;;;;2.50;87.19;99504.81;4971098;28;96608;-30
2023/03/08 11:34:41;;;;;;;0.93;0.73;;;;;;;2.53;87.59;99487.75;4971511;28;96717;-30
2023/03/08 11:37:21;;;;;;;0.00;0.00;;;;;;;2.60;87.03;99466.91;4971187;28;100816;-30
2023/03/08 11:40:03;;;;;;;0.43;0.35;;;;;;;2.77;86.25;99453.53;4972004;28;99114;-30
2023/03/08 11:42:43;;;;;;;1.58;1.10;;;;;;;2.98;86.18;99444.38;4970576;28;97090;-30
2023/03/08 11:45:20;;;;;;;3.70;1.45;;;;;;;3.09;85.16;99446.47;4971057;28;96898;-29
2023/03/08 11:48:07;;;;;;;2.08;1.52;;;;;;;3.26;85.00;99447.38;4970851;28;101811;-30